sensor_id;sensor_type;location;lat;lon;timestamp;P1;durP1;ratioP1;P2;durP2;ratioP2
17832;SDS011;9041;49.718;21.798;2023-01-04T00:01:55;64.50;;;28.80;;
17832;SDS011;9041;49.718;21.798;2023-01-04T00:04:23;66.47;;;28.17;;
17832;SDS011;9041;49.718;21.798;2023-01-04T00:06:50;68.33;;;28.00;;
17832;SDS011;9041;49.718;21.798;2023-01-04T00:09:17;60.97;;;26.97;;
17832;SDS011;9041;49.718;21.798;2023-01-04T00:11:43;61.40;;;24.53;;
17832;SDS011;9041;49.718;21.798;2023-01-04T00:14:10;60.23;;;25.13;;
17832;SDS011;9041;49.718;21.798;2023-01-04T00:16:37;49.73;;;21.97;;
17832;SDS011;9041;49.718;21.798;2023-01-04T00:19:03;40.73;;;16.87;;
17832;SDS011;9041;49.718;21.798;2023-01-04T00:21:31;34.53;;;14.83;;
17832;SDS011;9041;49.718;21.798;2023-01-04T00:23:58;39.40;;;15.40;;
17832;SDS011;9041;49.718;21.798;2023-01-04T00:26:27;31.33;;;14.53;;
17832;SDS011;9041;49.718;21.798;2023-01-04T00:28:55;35.33;;;15.47;;
17832;SDS011;9041;49.718;21.798;2023-01-04T00:31:23;32.73;;;14.50;;
17832;SDS011;9041;49.718;21.798;2023-01-04T00:33:51;30.83;;;14.20;;
17832;SDS011;9041;49.718;21.798;2023-01-04T00:36:18;35.80;;;14.07;;
17832;SDS011;9041;49.718;21.798;2023-01-04T00:38:46;26.70;;;12.57;;
17832;SDS011;9041;49.718;21.798;2023-01-04T00:41:31;30.00;;;12.03;;
17832;SDS011;9041;49.718;21.798;2023-01-04T00:43:57;29.03;;;11.63;;
17832;SDS011;9041;49.718;21.798;2023-01-04T00:46:27;26.67;;;11.17;;
17832;SDS011;9041;49.718;21.798;2023-01-04T00:48:54;24.20;;;9.93;;
17832;SDS011;9041;49.718;21.798;2023-01-04T00:51:21;20.23;;;9.47;;
17832;SDS011;9041;49.718;21.798;2023-01-04T00:53:49;23.43;;;9.37;;
17832;SDS011;9041;49.718;21.798;2023-01-04T00:56:15;19.23;;;8.63;;
17832;SDS011;9041;49.718;21.798;2023-01-04T00:58:42;19.87;;;9.97;;
17832;SDS011;9041;49.718;21.798;2023-01-04T01:01:09;21.53;;;10.20;;
17832;SDS011;9041;49.718;21.798;2023-01-04T01:03:36;20.10;;;10.43;;
17832;SDS011;9041;49.718;21.798;2023-01-04T01:06:04;20.80;;;8.63;;
17832;SDS011;9041;49.718;21.798;2023-01-04T01:08:32;23.03;;;11.07;;
17832;SDS011;9041;49.718;21.798;2023-01-04T01:11:02;22.33;;;10.00;;
17832;SDS011;9041;49.718;21.798;2023-01-04T01:13:30;22.60;;;10.80;;
17832;SDS011;9041;49.718;21.798;2023-01-04T01:16:00;21.07;;;10.13;;
17832;SDS011;9041;49.718;21.798;2023-01-04T01:18:28;24.50;;;10.90;;
17832;SDS011;9041;49.718;21.798;2023-01-04T01:20:55;24.57;;;9.93;;
17832;SDS011;9041;49.718;21.798;2023-01-04T01:23:21;23.03;;;9.87;;
17832;SDS011;9041;49.718;21.798;2023-01-04T01:25:48;26.60;;;9.77;;
17832;SDS011;9041;49.718;21.798;2023-01-04T01:28:16;21.17;;;10.37;;
17832;SDS011;9041;49.718;21.798;2023-01-04T01:30:43;17.70;;;9.03;;
17832;SDS011;9041;49.718;21.798;2023-01-04T01:33:09;21.03;;;9.50;;
17832;SDS011;9041;49.718;21.798;2023-01-04T01:35:36;23.10;;;9.93;;
17832;SDS011;9041;49.718;21.798;2023-01-04T01:38:03;23.27;;;11.07;;
17832;SDS011;9041;49.718;21.798;2023-01-04T01:40:29;25.47;;;11.57;;
17832;SDS011;9041;49.718;21.798;2023-01-04T01:42:56;23.60;;;11.17;;
17832;SDS011;9041;49.718;21.798;2023-01-04T01:45:28;20.53;;;10.23;;
17832;SDS011;9041;49.718;21.798;2023-01-04T01:47:58;23.47;;;9.70;;
17832;SDS011;9041;49.718;21.798;2023-01-04T01:50:29;19.00;;;9.30;;
17832;SDS011;9041;49.718;21.798;2023-01-04T01:52:58;17.90;;;8.87;;
17832;SDS011;9041;49.718;21.798;2023-01-04T01:55:26;18.13;;;8.60;;
17832;SDS011;9041;49.718;21.798;2023-01-04T01:57:54;19.93;;;7.53;;
17832;SDS011;9041;49.718;21.798;2023-01-04T02:00:21;15.90;;;7.83;;
17832;SDS011;9041;49.718;21.798;2023-01-04T02:02:50;17.63;;;8.23;;
17832;SDS011;9041;49.718;21.798;2023-01-04T02:05:20;17.30;;;7.50;;
17832;SDS011;9041;49.718;21.798;2023-01-04T02:07:47;14.80;;;7.87;;
17832;SDS011;9041;49.718;21.798;2023-01-04T02:10:14;17.57;;;8.00;;
17832;SDS011;9041;49.718;21.798;2023-01-04T02:12:40;17.77;;;7.77;;
17832;SDS011;9041;49.718;21.798;2023-01-04T02:15:08;15.40;;;7.67;;
17832;SDS011;9041;49.718;21.798;2023-01-04T02:17:37;20.63;;;8.90;;
17832;SDS011;9041;49.718;21.798;2023-01-04T02:20:13;18.90;;;8.60;;
17832;SDS011;9041;49.718;21.798;2023-01-04T02:23:20;15.77;;;7.97;;
17832;SDS011;9041;49.718;21.798;2023-01-04T02:29:11;17.90;;;8.90;;
17832;SDS011;9041;49.718;21.798;2023-01-04T02:31:58;20.63;;;8.10;;
17832;SDS011;9041;49.718;21.798;2023-01-04T02:34:28;22.83;;;9.17;;
17832;SDS011;9041;49.718;21.798;2023-01-04T02:37:00;20.87;;;9.13;;
17832;SDS011;9041;49.718;21.798;2023-01-04T02:39:32;25.80;;;9.00;;
17832;SDS011;9041;49.718;21.798;2023-01-04T02:42:03;21.80;;;8.60;;
17832;SDS011;9041;49.718;21.798;2023-01-04T02:44:34;19.93;;;8.70;;
17832;SDS011;9041;49.718;21.798;2023-01-04T02:47:20;20.97;;;8.87;;
17832;SDS011;9041;49.718;21.798;2023-01-04T02:50:08;20.70;;;8.97;;
17832;SDS011;9041;49.718;21.798;2023-01-04T02:52:59;18.80;;;8.67;;
17832;SDS011;9041;49.718;21.798;2023-01-04T02:55:28;15.73;;;7.20;;
17832;SDS011;9041;49.718;21.798;2023-01-04T02:58:05;17.97;;;7.67;;
17832;SDS011;9041;49.718;21.798;2023-01-04T03:00:38;15.17;;;7.40;;
17832;SDS011;9041;49.718;21.798;2023-01-04T03:03:28;19.40;;;7.60;;
17832;SDS011;9041;49.718;21.798;2023-01-04T03:06:14;16.77;;;8.03;;
17832;SDS011;9041;49.718;21.798;2023-01-04T03:08:51;18.43;;;7.43;;
17832;SDS011;9041;49.718;21.798;2023-01-04T03:11:21;20.23;;;8.47;;
17832;SDS011;9041;49.718;21.798;2023-01-04T03:14:08;16.67;;;8.30;;
17832;SDS011;9041;49.718;21.798;2023-01-04T03:16:37;19.00;;;7.80;;
17832;SDS011;9041;49.718;21.798;2023-01-04T03:19:06;15.20;;;7.60;;
17832;SDS011;9041;49.718;21.798;2023-01-04T03:21:35;18.03;;;8.13;;
17832;SDS011;9041;49.718;21.798;2023-01-04T03:24:03;21.20;;;7.77;;
17832;SDS011;9041;49.718;21.798;2023-01-04T03:26:50;17.27;;;8.17;;
17832;SDS011;9041;49.718;21.798;2023-01-04T03:29:46;15.80;;;7.17;;
17832;SDS011;9041;49.718;21.798;2023-01-04T03:32:36;14.63;;;6.93;;
17832;SDS011;9041;49.718;21.798;2023-01-04T03:35:28;18.63;;;7.47;;
17832;SDS011;9041;49.718;21.798;2023-01-04T03:38:12;16.00;;;7.30;;
17832;SDS011;9041;49.718;21.798;2023-01-04T03:40:59;16.67;;;7.13;;
17832;SDS011;9041;49.718;21.798;2023-01-04T03:43:49;14.73;;;7.00;;
17832;SDS011;9041;49.718;21.798;2023-01-04T03:46:42;19.80;;;7.47;;
17832;SDS011;9041;49.718;21.798;2023-01-04T03:49:30;18.20;;;7.10;;
17832;SDS011;9041;49.718;21.798;2023-01-04T03:52:01;14.37;;;7.23;;
17832;SDS011;9041;49.718;21.798;2023-01-04T03:54:29;14.43;;;7.07;;
17832;SDS011;9041;49.718;21.798;2023-01-04T03:56:58;13.67;;;7.40;;
17832;SDS011;9041;49.718;21.798;2023-01-04T03:59:25;18.53;;;7.43;;
17832;SDS011;9041;49.718;21.798;2023-01-04T04:01:52;11.63;;;6.33;;
17832;SDS011;9041;49.718;21.798;2023-01-04T04:04:19;15.63;;;6.67;;
17832;SDS011;9041;49.718;21.798;2023-01-04T04:07:05;14.00;;;6.77;;
17832;SDS011;9041;49.718;21.798;2023-01-04T04:09:49;15.33;;;6.30;;
17832;SDS011;9041;49.718;21.798;2023-01-04T04:12:15;16.63;;;6.47;;
17832;SDS011;9041;49.718;21.798;2023-01-04T04:14:42;15.43;;;7.00;;
17832;SDS011;9041;49.718;21.798;2023-01-04T04:17:08;15.40;;;6.73;;
17832;SDS011;9041;49.718;21.798;2023-01-04T04:19:35;15.27;;;6.67;;
17832;SDS011;9041;49.718;21.798;2023-01-04T04:22:02;14.93;;;6.97;;
17832;SDS011;9041;49.718;21.798;2023-01-04T04:24:30;15.00;;;7.37;;
17832;SDS011;9041;49.718;21.798;2023-01-04T04:26:56;15.53;;;6.63;;
17832;SDS011;9041;49.718;21.798;2023-01-04T04:29:23;17.30;;;7.40;;
17832;SDS011;9041;49.718;21.798;2023-01-04T04:31:50;21.60;;;8.47;;
17832;SDS011;9041;49.718;21.798;2023-01-04T04:34:17;14.03;;;7.07;;
17832;SDS011;9041;49.718;21.798;2023-01-04T04:36:44;23.83;;;9.10;;
17832;SDS011;9041;49.718;21.798;2023-01-04T04:39:10;27.90;;;11.13;;
17832;SDS011;9041;49.718;21.798;2023-01-04T04:41:39;24.97;;;10.87;;
17832;SDS011;9041;49.718;21.798;2023-01-04T04:44:05;19.40;;;9.37;;
17832;SDS011;9041;49.718;21.798;2023-01-04T04:46:32;21.60;;;8.70;;
17832;SDS011;9041;49.718;21.798;2023-01-04T04:48:59;21.03;;;8.27;;
17832;SDS011;9041;49.718;21.798;2023-01-04T04:51:27;23.33;;;8.17;;
17832;SDS011;9041;49.718;21.798;2023-01-04T04:53:54;17.93;;;7.97;;
17832;SDS011;9041;49.718;21.798;2023-01-04T04:56:21;21.63;;;8.33;;
17832;SDS011;9041;49.718;21.798;2023-01-04T04:58:49;27.50;;;9.97;;
17832;SDS011;9041;49.718;21.798;2023-01-04T05:01:15;20.93;;;9.63;;
17832;SDS011;9041;49.718;21.798;2023-01-04T05:03:42;24.33;;;10.03;;
17832;SDS011;9041;49.718;21.798;2023-01-04T05:06:09;24.13;;;9.27;;
17832;SDS011;9041;49.718;21.798;2023-01-04T05:08:35;20.50;;;9.43;;
17832;SDS011;9041;49.718;21.798;2023-01-04T05:11:03;25.60;;;10.37;;
17832;SDS011;9041;49.718;21.798;2023-01-04T05:13:31;24.80;;;8.97;;
17832;SDS011;9041;49.718;21.798;2023-01-04T05:15:58;18.87;;;8.27;;
17832;SDS011;9041;49.718;21.798;2023-01-04T05:18:24;18.70;;;7.20;;
17832;SDS011;9041;49.718;21.798;2023-01-04T05:20:51;17.80;;;7.50;;
17832;SDS011;9041;49.718;21.798;2023-01-04T05:23:19;17.90;;;7.73;;
17832;SDS011;9041;49.718;21.798;2023-01-04T05:25:46;18.57;;;7.73;;
17832;SDS011;9041;49.718;21.798;2023-01-04T05:28:16;18.43;;;8.00;;
17832;SDS011;9041;49.718;21.798;2023-01-04T05:30:42;18.77;;;7.90;;
17832;SDS011;9041;49.718;21.798;2023-01-04T05:33:22;16.27;;;6.83;;
17832;SDS011;9041;49.718;21.798;2023-01-04T05:35:50;18.80;;;8.07;;
17832;SDS011;9041;49.718;21.798;2023-01-04T05:38:17;18.00;;;7.60;;
17832;SDS011;9041;49.718;21.798;2023-01-04T05:40:45;17.20;;;8.03;;
17832;SDS011;9041;49.718;21.798;2023-01-04T05:43:13;17.77;;;7.93;;
17832;SDS011;9041;49.718;21.798;2023-01-04T05:45:41;23.50;;;7.77;;
17832;SDS011;9041;49.718;21.798;2023-01-04T05:48:08;20.03;;;7.63;;
17832;SDS011;9041;49.718;21.798;2023-01-04T05:50:37;22.10;;;7.77;;
17832;SDS011;9041;49.718;21.798;2023-01-04T05:53:03;19.07;;;8.57;;
17832;SDS011;9041;49.718;21.798;2023-01-04T05:55:30;18.03;;;8.23;;
17832;SDS011;9041;49.718;21.798;2023-01-04T05:57:57;17.00;;;7.83;;
17832;SDS011;9041;49.718;21.798;2023-01-04T06:00:24;20.00;;;7.93;;
17832;SDS011;9041;49.718;21.798;2023-01-04T06:02:51;21.80;;;8.50;;
17832;SDS011;9041;49.718;21.798;2023-01-04T06:05:19;18.70;;;8.97;;
17832;SDS011;9041;49.718;21.798;2023-01-04T06:07:47;21.97;;;8.77;;
17832;SDS011;9041;49.718;21.798;2023-01-04T06:10:14;35.20;;;12.87;;
17832;SDS011;9041;49.718;21.798;2023-01-04T06:12:41;53.53;;;17.47;;
17832;SDS011;9041;49.718;21.798;2023-01-04T06:15:09;48.90;;;17.60;;
17832;SDS011;9041;49.718;21.798;2023-01-04T06:17:36;50.30;;;15.57;;
17832;SDS011;9041;49.718;21.798;2023-01-04T06:20:04;35.93;;;14.73;;
17832;SDS011;9041;49.718;21.798;2023-01-04T06:22:37;36.90;;;14.63;;
17832;SDS011;9041;49.718;21.798;2023-01-04T06:25:06;43.97;;;16.47;;
17832;SDS011;9041;49.718;21.798;2023-01-04T06:27:33;65.73;;;23.80;;
17832;SDS011;9041;49.718;21.798;2023-01-04T06:30:00;59.80;;;21.93;;
17832;SDS011;9041;49.718;21.798;2023-01-04T06:32:26;52.70;;;20.83;;
17832;SDS011;9041;49.718;21.798;2023-01-04T06:34:53;62.67;;;25.77;;
17832;SDS011;9041;49.718;21.798;2023-01-04T06:37:19;56.37;;;21.43;;
17832;SDS011;9041;49.718;21.798;2023-01-04T06:39:46;47.83;;;16.97;;
17832;SDS011;9041;49.718;21.798;2023-01-04T06:42:14;34.60;;;15.17;;
17832;SDS011;9041;49.718;21.798;2023-01-04T06:44:58;38.30;;;15.47;;
17832;SDS011;9041;49.718;21.798;2023-01-04T06:47:25;42.07;;;15.87;;
17832;SDS011;9041;49.718;21.798;2023-01-04T06:49:52;40.07;;;16.27;;
17832;SDS011;9041;49.718;21.798;2023-01-04T06:52:18;42.13;;;16.20;;
17832;SDS011;9041;49.718;21.798;2023-01-04T06:54:45;34.20;;;15.33;;
17832;SDS011;9041;49.718;21.798;2023-01-04T06:57:12;39.10;;;15.93;;
17832;SDS011;9041;49.718;21.798;2023-01-04T06:59:40;46.57;;;18.57;;
17832;SDS011;9041;49.718;21.798;2023-01-04T07:02:12;52.37;;;20.83;;
17832;SDS011;9041;49.718;21.798;2023-01-04T07:04:39;46.77;;;18.43;;
17832;SDS011;9041;49.718;21.798;2023-01-04T07:07:06;45.47;;;20.00;;
17832;SDS011;9041;49.718;21.798;2023-01-04T07:09:32;48.03;;;18.37;;
17832;SDS011;9041;49.718;21.798;2023-01-04T07:12:00;52.83;;;21.73;;
17832;SDS011;9041;49.718;21.798;2023-01-04T07:14:26;70.40;;;25.77;;
17832;SDS011;9041;49.718;21.798;2023-01-04T07:16:54;67.90;;;23.13;;
17832;SDS011;9041;49.718;21.798;2023-01-04T07:19:21;68.20;;;24.43;;
17832;SDS011;9041;49.718;21.798;2023-01-04T07:21:47;57.87;;;20.73;;
17832;SDS011;9041;49.718;21.798;2023-01-04T07:24:14;49.93;;;21.47;;
17832;SDS011;9041;49.718;21.798;2023-01-04T07:26:41;76.93;;;27.60;;
17832;SDS011;9041;49.718;21.798;2023-01-04T07:29:08;79.10;;;28.27;;
17832;SDS011;9041;49.718;21.798;2023-01-04T07:31:39;92.87;;;32.17;;
17832;SDS011;9041;49.718;21.798;2023-01-04T07:34:08;109.60;;;34.40;;
17832;SDS011;9041;49.718;21.798;2023-01-04T07:36:34;132.93;;;42.90;;
17832;SDS011;9041;49.718;21.798;2023-01-04T07:39:01;156.90;;;47.63;;
17832;SDS011;9041;49.718;21.798;2023-01-04T07:41:28;130.03;;;40.77;;
17832;SDS011;9041;49.718;21.798;2023-01-04T07:43:54;102.83;;;33.87;;
17832;SDS011;9041;49.718;21.798;2023-01-04T07:46:21;135.27;;;44.60;;
17832;SDS011;9041;49.718;21.798;2023-01-04T07:48:48;117.27;;;40.60;;
17832;SDS011;9041;49.718;21.798;2023-01-04T07:51:16;109.57;;;38.60;;
17832;SDS011;9041;49.718;21.798;2023-01-04T07:53:43;94.20;;;31.57;;
17832;SDS011;9041;49.718;21.798;2023-01-04T07:56:09;77.07;;;28.13;;
17832;SDS011;9041;49.718;21.798;2023-01-04T07:58:36;67.37;;;24.77;;
17832;SDS011;9041;49.718;21.798;2023-01-04T08:01:07;70.10;;;26.87;;
17832;SDS011;9041;49.718;21.798;2023-01-04T08:03:34;112.10;;;35.70;;
17832;SDS011;9041;49.718;21.798;2023-01-04T08:06:01;93.80;;;31.93;;
17832;SDS011;9041;49.718;21.798;2023-01-04T08:08:30;103.23;;;34.43;;
17832;SDS011;9041;49.718;21.798;2023-01-04T08:10:59;95.53;;;34.60;;
17832;SDS011;9041;49.718;21.798;2023-01-04T08:13:26;62.40;;;22.93;;
17832;SDS011;9041;49.718;21.798;2023-01-04T08:15:53;60.37;;;22.73;;
17832;SDS011;9041;49.718;21.798;2023-01-04T08:18:20;61.23;;;23.13;;
17832;SDS011;9041;49.718;21.798;2023-01-04T08:20:46;60.03;;;20.87;;
17832;SDS011;9041;49.718;21.798;2023-01-04T08:23:13;47.57;;;19.43;;
17832;SDS011;9041;49.718;21.798;2023-01-04T08:25:41;57.97;;;22.27;;
17832;SDS011;9041;49.718;21.798;2023-01-04T08:28:08;53.87;;;21.67;;
17832;SDS011;9041;49.718;21.798;2023-01-04T08:30:35;47.80;;;19.57;;
17832;SDS011;9041;49.718;21.798;2023-01-04T08:33:01;51.57;;;20.07;;
17832;SDS011;9041;49.718;21.798;2023-01-04T08:35:28;57.77;;;22.37;;
17832;SDS011;9041;49.718;21.798;2023-01-04T08:37:55;55.10;;;19.70;;
17832;SDS011;9041;49.718;21.798;2023-01-04T08:40:21;54.93;;;24.20;;
17832;SDS011;9041;49.718;21.798;2023-01-04T08:42:49;47.27;;;17.97;;
17832;SDS011;9041;49.718;21.798;2023-01-04T08:45:16;39.53;;;17.77;;
17832;SDS011;9041;49.718;21.798;2023-01-04T08:47:43;52.87;;;19.63;;
17832;SDS011;9041;49.718;21.798;2023-01-04T08:50:10;50.90;;;19.37;;
17832;SDS011;9041;49.718;21.798;2023-01-04T08:52:37;68.53;;;29.57;;
17832;SDS011;9041;49.718;21.798;2023-01-04T08:55:04;46.33;;;19.70;;
17832;SDS011;9041;49.718;21.798;2023-01-04T08:57:31;49.93;;;20.47;;
17832;SDS011;9041;49.718;21.798;2023-01-04T09:00:00;45.00;;;18.37;;
17832;SDS011;9041;49.718;21.798;2023-01-04T09:02:27;48.97;;;17.43;;
17832;SDS011;9041;49.718;21.798;2023-01-04T09:04:54;46.60;;;16.73;;
17832;SDS011;9041;49.718;21.798;2023-01-04T09:07:23;39.63;;;15.47;;
17832;SDS011;9041;49.718;21.798;2023-01-04T09:09:50;44.63;;;16.97;;
17832;SDS011;9041;49.718;21.798;2023-01-04T09:12:16;46.30;;;17.03;;
17832;SDS011;9041;49.718;21.798;2023-01-04T09:14:43;36.33;;;14.43;;
17832;SDS011;9041;49.718;21.798;2023-01-04T09:17:11;38.13;;;15.30;;
17832;SDS011;9041;49.718;21.798;2023-01-04T09:19:38;37.93;;;15.43;;
17832;SDS011;9041;49.718;21.798;2023-01-04T09:22:04;33.20;;;14.80;;
17832;SDS011;9041;49.718;21.798;2023-01-04T09:24:31;39.23;;;16.30;;
17832;SDS011;9041;49.718;21.798;2023-01-04T09:26:58;40.80;;;17.17;;
17832;SDS011;9041;49.718;21.798;2023-01-04T09:29:25;33.90;;;14.83;;
17832;SDS011;9041;49.718;21.798;2023-01-04T09:31:52;35.73;;;16.80;;
17832;SDS011;9041;49.718;21.798;2023-01-04T09:34:20;33.70;;;15.27;;
17832;SDS011;9041;49.718;21.798;2023-01-04T09:36:47;32.70;;;14.40;;
17832;SDS011;9041;49.718;21.798;2023-01-04T09:39:14;35.87;;;14.83;;
17832;SDS011;9041;49.718;21.798;2023-01-04T09:41:43;35.37;;;14.53;;
17832;SDS011;9041;49.718;21.798;2023-01-04T09:44:13;37.23;;;16.43;;
17832;SDS011;9041;49.718;21.798;2023-01-04T09:47:02;34.77;;;15.43;;
17832;SDS011;9041;49.718;21.798;2023-01-04T09:49:33;30.53;;;14.70;;
17832;SDS011;9041;49.718;21.798;2023-01-04T09:52:03;40.20;;;17.37;;
17832;SDS011;9041;49.718;21.798;2023-01-04T09:54:38;36.20;;;15.77;;
17832;SDS011;9041;49.718;21.798;2023-01-04T09:57:24;37.77;;;16.57;;
17832;SDS011;9041;49.718;21.798;2023-01-04T09:59:53;30.33;;;14.30;;
17832;SDS011;9041;49.718;21.798;2023-01-04T10:02:24;41.73;;;16.37;;
17832;SDS011;9041;49.718;21.798;2023-01-04T10:04:56;39.80;;;17.33;;
17832;SDS011;9041;49.718;21.798;2023-01-04T10:07:25;35.00;;;16.63;;
17832;SDS011;9041;49.718;21.798;2023-01-04T10:09:53;42.37;;;17.27;;
17832;SDS011;9041;49.718;21.798;2023-01-04T10:12:23;40.23;;;17.03;;
17832;SDS011;9041;49.718;21.798;2023-01-04T10:14:57;37.80;;;16.80;;
17832;SDS011;9041;49.718;21.798;2023-01-04T10:17:46;38.63;;;16.83;;
17832;SDS011;9041;49.718;21.798;2023-01-04T10:20:43;43.90;;;17.17;;
17832;SDS011;9041;49.718;21.798;2023-01-04T10:23:17;41.33;;;16.30;;
17832;SDS011;9041;49.718;21.798;2023-01-04T10:25:50;41.97;;;16.90;;
17832;SDS011;9041;49.718;21.798;2023-01-04T10:28:29;40.53;;;17.50;;
17832;SDS011;9041;49.718;21.798;2023-01-04T10:31:04;39.63;;;16.53;;
17832;SDS011;9041;49.718;21.798;2023-01-04T10:33:37;39.70;;;16.40;;
17832;SDS011;9041;49.718;21.798;2023-01-04T10:36:16;35.00;;;16.13;;
17832;SDS011;9041;49.718;21.798;2023-01-04T10:38:43;40.23;;;16.03;;
17832;SDS011;9041;49.718;21.798;2023-01-04T10:41:11;39.90;;;16.17;;
17832;SDS011;9041;49.718;21.798;2023-01-04T10:43:43;37.93;;;16.80;;
17832;SDS011;9041;49.718;21.798;2023-01-04T10:46:13;37.27;;;15.57;;
17832;SDS011;9041;49.718;21.798;2023-01-04T10:48:42;28.07;;;12.40;;
17832;SDS011;9041;49.718;21.798;2023-01-04T10:51:13;27.03;;;12.13;;
17832;SDS011;9041;49.718;21.798;2023-01-04T10:53:43;33.67;;;11.97;;
17832;SDS011;9041;49.718;21.798;2023-01-04T10:56:14;19.60;;;9.33;;
17832;SDS011;9041;49.718;21.798;2023-01-04T10:58:45;17.63;;;8.77;;
17832;SDS011;9041;49.718;21.798;2023-01-04T11:01:15;21.70;;;10.00;;
17832;SDS011;9041;49.718;21.798;2023-01-04T11:03:45;20.37;;;9.83;;
17832;SDS011;9041;49.718;21.798;2023-01-04T11:06:17;22.50;;;10.00;;
17832;SDS011;9041;49.718;21.798;2023-01-04T11:08:48;21.57;;;8.83;;
17832;SDS011;9041;49.718;21.798;2023-01-04T11:11:17;19.73;;;8.90;;
17832;SDS011;9041;49.718;21.798;2023-01-04T11:13:47;22.97;;;8.67;;
17832;SDS011;9041;49.718;21.798;2023-01-04T11:16:14;20.33;;;9.00;;
17832;SDS011;9041;49.718;21.798;2023-01-04T11:18:41;17.40;;;8.27;;
17832;SDS011;9041;49.718;21.798;2023-01-04T11:21:10;15.30;;;7.93;;
17832;SDS011;9041;49.718;21.798;2023-01-04T11:23:39;16.23;;;7.43;;
17832;SDS011;9041;49.718;21.798;2023-01-04T11:26:08;15.57;;;7.63;;
17832;SDS011;9041;49.718;21.798;2023-01-04T11:28:39;16.50;;;7.93;;
17832;SDS011;9041;49.718;21.798;2023-01-04T11:31:13;15.20;;;7.40;;
17832;SDS011;9041;49.718;21.798;2023-01-04T11:33:52;15.70;;;7.77;;
17832;SDS011;9041;49.718;21.798;2023-01-04T11:36:34;14.23;;;6.97;;
17832;SDS011;9041;49.718;21.798;2023-01-04T11:39:04;14.63;;;6.90;;
17832;SDS011;9041;49.718;21.798;2023-01-04T11:41:32;16.90;;;7.60;;
17832;SDS011;9041;49.718;21.798;2023-01-04T11:43:59;12.60;;;7.10;;
17832;SDS011;9041;49.718;21.798;2023-01-04T11:46:28;15.43;;;8.00;;
17832;SDS011;9041;49.718;21.798;2023-01-04T11:48:55;16.67;;;7.70;;
17832;SDS011;9041;49.718;21.798;2023-01-04T11:54:18;17.50;;;7.80;;
17832;SDS011;9041;49.718;21.798;2023-01-04T11:56:58;12.93;;;6.80;;
17832;SDS011;9041;49.718;21.798;2023-01-04T11:59:26;14.93;;;6.80;;
17832;SDS011;9041;49.718;21.798;2023-01-04T12:04:45;14.17;;;7.27;;
17832;SDS011;9041;49.718;21.798;2023-01-04T12:07:15;14.67;;;6.40;;
17832;SDS011;9041;49.718;21.798;2023-01-04T12:09:52;14.67;;;6.47;;
17832;SDS011;9041;49.718;21.798;2023-01-04T12:12:19;16.70;;;6.90;;
17832;SDS011;9041;49.718;21.798;2023-01-04T12:14:46;10.80;;;6.30;;
17832;SDS011;9041;49.718;21.798;2023-01-04T12:17:15;13.10;;;7.27;;
17832;SDS011;9041;49.718;21.798;2023-01-04T12:19:44;14.87;;;7.57;;
17832;SDS011;9041;49.718;21.798;2023-01-04T12:22:16;18.13;;;7.80;;
17832;SDS011;9041;49.718;21.798;2023-01-04T12:24:46;16.47;;;7.13;;
17832;SDS011;9041;49.718;21.798;2023-01-04T12:27:15;12.07;;;6.33;;
17832;SDS011;9041;49.718;21.798;2023-01-04T12:29:52;13.17;;;6.20;;
17832;SDS011;9041;49.718;21.798;2023-01-04T12:32:38;13.67;;;6.50;;
17832;SDS011;9041;49.718;21.798;2023-01-04T12:38:07;13.53;;;5.83;;
17832;SDS011;9041;49.718;21.798;2023-01-04T12:40:53;13.77;;;5.87;;
17832;SDS011;9041;49.718;21.798;2023-01-04T12:43:25;15.27;;;6.50;;
17832;SDS011;9041;49.718;21.798;2023-01-04T12:52:37;15.40;;;6.87;;
17832;SDS011;9041;49.718;21.798;2023-01-04T12:55:22;12.10;;;6.00;;
17832;SDS011;9041;49.718;21.798;2023-01-04T12:57:50;13.57;;;6.17;;
17832;SDS011;9041;49.718;21.798;2023-01-04T13:00:18;17.47;;;7.53;;
17832;SDS011;9041;49.718;21.798;2023-01-04T13:02:46;11.83;;;6.50;;
17832;SDS011;9041;49.718;21.798;2023-01-04T13:05:30;12.07;;;6.63;;
17832;SDS011;9041;49.718;21.798;2023-01-04T13:07:58;13.37;;;6.43;;
17832;SDS011;9041;49.718;21.798;2023-01-04T13:10:28;11.80;;;6.37;;
17832;SDS011;9041;49.718;21.798;2023-01-04T13:13:03;16.07;;;6.77;;
17832;SDS011;9041;49.718;21.798;2023-01-04T13:15:48;15.00;;;6.77;;
17832;SDS011;9041;49.718;21.798;2023-01-04T13:21:11;15.90;;;7.17;;
17832;SDS011;9041;49.718;21.798;2023-01-04T13:23:39;16.60;;;7.63;;
17832;SDS011;9041;49.718;21.798;2023-01-04T13:29:04;18.07;;;8.00;;
17832;SDS011;9041;49.718;21.798;2023-01-04T13:31:41;19.67;;;8.90;;
17832;SDS011;9041;49.718;21.798;2023-01-04T13:34:21;14.10;;;7.83;;
17832;SDS011;9041;49.718;21.798;2023-01-04T13:36:59;17.20;;;8.40;;
17832;SDS011;9041;49.718;21.798;2023-01-04T13:39:30;16.97;;;7.73;;
17832;SDS011;9041;49.718;21.798;2023-01-04T13:41:57;26.77;;;11.33;;
17832;SDS011;9041;49.718;21.798;2023-01-04T13:44:27;20.30;;;8.77;;
17832;SDS011;9041;49.718;21.798;2023-01-04T13:47:19;19.67;;;9.60;;
17832;SDS011;9041;49.718;21.798;2023-01-04T13:49:46;26.37;;;11.50;;
17832;SDS011;9041;49.718;21.798;2023-01-04T13:52:18;20.97;;;10.23;;
17832;SDS011;9041;49.718;21.798;2023-01-04T13:54:46;22.90;;;10.37;;
17832;SDS011;9041;49.718;21.798;2023-01-04T13:57:13;30.70;;;10.47;;
17832;SDS011;9041;49.718;21.798;2023-01-04T13:59:44;29.70;;;10.97;;
17832;SDS011;9041;49.718;21.798;2023-01-04T14:02:13;30.93;;;13.77;;
17832;SDS011;9041;49.718;21.798;2023-01-04T14:04:43;26.90;;;12.33;;
17832;SDS011;9041;49.718;21.798;2023-01-04T14:07:11;26.13;;;12.00;;
17832;SDS011;9041;49.718;21.798;2023-01-04T14:09:42;20.97;;;10.80;;
17832;SDS011;9041;49.718;21.798;2023-01-04T14:12:12;16.27;;;8.20;;
17832;SDS011;9041;49.718;21.798;2023-01-04T14:14:44;20.70;;;9.67;;
17832;SDS011;9041;49.718;21.798;2023-01-04T14:17:20;16.57;;;8.30;;
17832;SDS011;9041;49.718;21.798;2023-01-04T14:19:54;19.80;;;9.53;;
17832;SDS011;9041;49.718;21.798;2023-01-04T14:28:36;20.47;;;9.70;;
17832;SDS011;9041;49.718;21.798;2023-01-04T14:31:11;21.80;;;10.20;;
17832;SDS011;9041;49.718;21.798;2023-01-04T14:33:40;23.37;;;10.80;;
17832;SDS011;9041;49.718;21.798;2023-01-04T14:36:11;27.50;;;11.93;;
17832;SDS011;9041;49.718;21.798;2023-01-04T14:38:39;20.80;;;10.67;;
17832;SDS011;9041;49.718;21.798;2023-01-04T14:41:11;23.00;;;10.53;;
17832;SDS011;9041;49.718;21.798;2023-01-04T14:43:45;27.60;;;10.37;;
17832;SDS011;9041;49.718;21.798;2023-01-04T14:46:13;20.80;;;10.07;;
17832;SDS011;9041;49.718;21.798;2023-01-04T14:48:39;19.27;;;9.37;;
17832;SDS011;9041;49.718;21.798;2023-01-04T14:51:06;23.80;;;10.47;;
17832;SDS011;9041;49.718;21.798;2023-01-04T14:53:34;26.03;;;11.70;;
17832;SDS011;9041;49.718;21.798;2023-01-04T14:56:01;32.63;;;11.60;;
17832;SDS011;9041;49.718;21.798;2023-01-04T14:58:28;30.40;;;13.77;;
17832;SDS011;9041;49.718;21.798;2023-01-04T15:00:54;31.67;;;13.63;;
17832;SDS011;9041;49.718;21.798;2023-01-04T15:03:21;49.67;;;21.37;;
17832;SDS011;9041;49.718;21.798;2023-01-04T15:05:48;34.77;;;15.13;;
17832;SDS011;9041;49.718;21.798;2023-01-04T15:08:15;48.67;;;22.97;;
17832;SDS011;9041;49.718;21.798;2023-01-04T15:10:43;32.90;;;14.20;;
17832;SDS011;9041;49.718;21.798;2023-01-04T15:13:10;40.40;;;17.97;;
17832;SDS011;9041;49.718;21.798;2023-01-04T15:15:36;33.57;;;14.97;;
17832;SDS011;9041;49.718;21.798;2023-01-04T15:18:03;25.00;;;12.20;;